Response — WDA9597 — position and weather

sailwx.info

Track history (hours):
 
Tides and Currents Weather Stations Pressure Air Temp Water Temp Dewpoint Dewpoint Depression Visibility Wind Speed Wind Dir Waves Ship Positions

Response

Owner: VESSEL MANAGEMENT SERVICES INC, SEATTLE, WA. More information available from US FCC via Universal Licensing System and Coast Guard Vessel Documentation Center.

Last reported at 2018-Feb-19 17:23 UTC. Time now 2018-Feb-19 17:32 UTC.
Position N 48°47' W 122°45'.

Length 40 m; draft 6.1 m.

Type: Tug. MMSI: 366866930.

Date/timePositionNaut miles runAvg speedWind from/ knotsBaromVisibWave heightAir tempDewpointWater temp
2018-Feb-19 17:23N 48°47' W 122°45'611.8
2018-Feb-19 16:54N 48°41' W 122°43'411.6
2018-Feb-19 16:31N 48°38' W 122°39'3 6.2
2018-Feb-19 16:00N 48°37' W 122°34'0 0.3
2018-Feb-19 15:30N 48°37' W 122°34'0 0.4
2018-Feb-19 15:01N 48°37' W 122°34'0 0.9
2018-Feb-19 14:30N 48°36' W 122°35'1 2.9
2018-Feb-19 14:00N 48°35' W 122°35'3 6.9
2018-Feb-19 13:31N 48°32' W 122°34'2 3.2
2018-Feb-19 13:00N 48°31' W 122°37'0 0.0
2018-Feb-19 12:30N 48°31' W 122°37'0 0.0
2018-Feb-19 12:00N 48°31' W 122°37'0 0.0
2018-Feb-19 11:29N 48°31' W 122°37'0 0.0
2018-Feb-19 11:00N 48°31' W 122°37'0 0.0
2018-Feb-19 10:30N 48°31' W 122°37'0 0.0
2018-Feb-19 10:01N 48°31' W 122°37'0 0.0
2018-Feb-19 09:30N 48°31' W 122°37'0 0.0
2018-Feb-19 09:01N 48°31' W 122°37'0 0.0
2018-Feb-19 08:25N 48°31' W 122°37'0 0.0
2018-Feb-19 08:00N 48°31' W 122°37'0 0.0
2018-Feb-19 07:30N 48°31' W 122°37'0 0.0
2018-Feb-19 07:00N 48°31' W 122°37'0 0.0
2018-Feb-19 06:29N 48°31' W 122°37'0 0.0
2018-Feb-19 05:59N 48°31' W 122°37'0 0.0
2018-Feb-19 05:31N 48°31' W 122°37'0 0.0
2018-Feb-19 04:59N 48°31' W 122°37'0 0.0
2018-Feb-19 04:30N 48°31' W 122°37'0 0.0
2018-Feb-19 04:00N 48°31' W 122°37'0 0.0
2018-Feb-19 03:30N 48°31' W 122°37'0 0.0
2018-Feb-19 03:00N 48°31' W 122°37'0 0.0
2018-Feb-19 02:30N 48°31' W 122°37'0 0.0
2018-Feb-19 02:00N 48°31' W 122°37'0 0.0
2018-Feb-19 01:28N 48°31' W 122°37'0 0.0
2018-Feb-19 01:00N 48°31' W 122°37'0 0.0
2018-Feb-19 00:31N 48°31' W 122°37'0 0.0
2018-Feb-19 00:00N 48°31' W 122°37'0 0.0
2018-Feb-18 23:30N 48°31' W 122°37'0 0.0
2018-Feb-18 22:59N 48°31' W 122°37'0 0.0
2018-Feb-18 22:30N 48°31' W 122°37'0 0.0
2018-Feb-18 22:00N 48°31' W 122°37'0 0.0
2018-Feb-18 21:30N 48°31' W 122°37'0 0.0
2018-Feb-18 21:00N 48°31' W 122°37'0 0.0
2018-Feb-18 20:31N 48°31' W 122°37'0 0.0
2018-Feb-18 20:00N 48°31' W 122°37'0 0.0
2018-Feb-18 19:31N 48°31' W 122°37'0 0.0
2018-Feb-18 19:00N 48°31' W 122°37'0 0.0
2018-Feb-18 18:30N 48°31' W 122°37'0 0.0
2018-Feb-18 18:00N 48°31' W 122°37'0 0.0
2018-Feb-18 17:30N 48°31' W 122°37'0 0.0
2018-Feb-18 17:00N 48°31' W 122°37'0 0.0
2018-Feb-18 16:30N 48°31' W 122°37'0 0.0
2018-Feb-18 15:57N 48°31' W 122°37'0 0.0
2018-Feb-18 15:29N 48°31' W 122°37'0 0.0
2018-Feb-18 15:00N 48°31' W 122°37'0 0.0
2018-Feb-18 14:30N 48°31' W 122°37'0 0.0
2018-Feb-18 14:00N 48°31' W 122°37'0 0.0
2018-Feb-18 13:29N 48°31' W 122°37'0 0.0
2018-Feb-18 13:00N 48°31' W 122°37'0 0.0
2018-Feb-18 12:30N 48°31' W 122°37'0 0.0
2018-Feb-18 12:00N 48°31' W 122°37'0 0.0
2018-Feb-18 11:30N 48°31' W 122°37'0 0.0
2018-Feb-18 10:59N 48°31' W 122°37'0 0.0
2018-Feb-18 10:30N 48°31' W 122°37'0 0.0
2018-Feb-18 10:00N 48°31' W 122°37'0 0.0
2018-Feb-18 09:31N 48°31' W 122°37'2 4.3
2018-Feb-18 09:00N 48°32' W 122°34'4 9.0
2018-Feb-18 08:31N 48°37' W 122°34'0 0.8
2018-Feb-18 08:00N 48°37' W 122°34'1 2.1
2018-Feb-18 07:30N 48°37' W 122°36'4 7.1
2018-Feb-18 07:00N 48°39' W 122°40'510.7
2018-Feb-18 06:30N 48°43' W 122°45'510.8
2018-Feb-18 06:01N 48°49' W 122°46'1 0.7
2018-Feb-18 04:14N 48°48' W 122°44'3 7.0
2018-Feb-18 03:45N 48°45' W 122°43'0 0.0
2018-Feb-18 01:16N 48°45' W 122°43'0 0.0
2018-Feb-17 19:51N 48°45' W 122°43'0 0.0
2018-Feb-17 19:29N 48°45' W 122°43'0 0.1
2018-Feb-17 18:50N 48°45' W 122°43'0 0.0
2018-Feb-17 14:58N 48°45' W 122°43'4 7.6
2018-Feb-17 14:30N 48°49' W 122°44'1 0.4
2018-Feb-17 13:11N 48°49' W 122°43'1 0.7
2018-Feb-17 12:15N 48°48' W 122°43'0 0.0
2018-Feb-17 12:00N 48°48' W 122°43'0 0.0
2018-Feb-17 08:12N 48°48' W 122°43'0 0.1
2018-Feb-17 07:45N 48°48' W 122°43'0 0.0
2018-Feb-17 07:30N 48°48' W 122°43'0 0.0
2018-Feb-17 06:58N 48°48' W 122°43'0 0.0
2018-Feb-17 06:28N 48°48' W 122°43'0 0.0
2018-Feb-17 05:59N 48°48' W 122°43'0 0.0
2018-Feb-17 05:30N 48°48' W 122°43'0 0.0
2018-Feb-17 05:00N 48°48' W 122°43'0 0.0
2018-Feb-17 04:29N 48°48' W 122°43'0 0.0
2018-Feb-17 04:00N 48°48' W 122°43'0 0.0
2018-Feb-17 03:30N 48°48' W 122°43'0 0.1
2018-Feb-17 03:00N 48°48' W 122°43'0 0.2
2018-Feb-17 01:09N 48°49' W 122°44'0 0.1
2018-Feb-16 19:35N 48°48' W 122°43'0 0.1
2018-Feb-16 18:53N 48°48' W 122°43'0 0.0
2018-Feb-16 17:14N 48°48' W 122°43'0 1.5
2018-Feb-16 17:00N 48°48' W 122°44'3 2.5
2018-Feb-16 15:39N 48°51' W 122°45'1 4.0
2018-Feb-16 15:30N 48°51' W 122°45'5 8.4
2018-Feb-16 14:58N 48°46' W 122°46'511.5
2018-Feb-16 14:30N 48°41' W 122°43'5 9.5
2018-Feb-16 14:00N 48°37' W 122°45'510.7
2018-Feb-16 13:30N 48°32' W 122°44'510.1
2018-Feb-16 13:00N 48°27' W 122°46'713.5
2018-Feb-16 12:30N 48°22' W 122°52'6 1.1
2018-Feb-16 07:04N 48°19' W 123°01'1 7.8
2018-Feb-16 07:00N 48°20' W 123°00'4 8.6
2018-Feb-16 06:30N 48°22' W 122°55'4 8.5
2018-Feb-16 06:00N 48°24' W 122°49'5 9.0
2018-Feb-16 05:30N 48°28' W 122°45'510.1
2018-Feb-16 05:00N 48°33' W 122°45'510.2
2018-Feb-16 04:30N 48°38' W 122°44'5 9.4
2018-Feb-16 04:00N 48°43' W 122°45'5 8.9
2018-Feb-16 03:30N 48°47' W 122°44'1 2.2
2018-Feb-16 02:59N 48°48' W 122°43'0 0.0
2018-Feb-16 00:13N 48°48' W 122°43'0 0.0
2018-Feb-15 22:54N 48°48' W 122°43'0 0.0
2018-Feb-15 21:10N 48°48' W 122°43'0 0.0
2018-Feb-15 20:53N 48°48' W 122°43'0 0.0
2018-Feb-15 20:25N 48°48' W 122°43'0 0.0
2018-Feb-15 20:00N 48°48' W 122°43'0 0.0
2018-Feb-15 19:29N 48°48' W 122°43'0 0.0
2018-Feb-15 18:54N 48°48' W 122°43'1 2.1
2018-Feb-15 18:30N 48°49' W 122°44'2 1.1
2018-Feb-15 16:43N 48°51' W 122°45'1 5.0
2018-Feb-15 16:29N 48°50' W 122°45'6 9.6
2018-Feb-15 15:54N 48°44' W 122°45'4 9.7
2018-Feb-15 15:30N 48°41' W 122°42'5 9.1
2018-Feb-15 15:01N 48°37' W 122°37'4 8.0
2018-Feb-15 14:30N 48°34' W 122°35'3 6.0
2018-Feb-15 14:00N 48°31' W 122°35'0 0.6
2018-Feb-15 13:30N 48°31' W 122°35'0 0.4
2018-Feb-15 13:00N 48°31' W 122°35'0 0.6
2018-Feb-15 12:30N 48°31' W 122°35'3 6.2
2018-Feb-15 12:01N 48°31' W 122°40'4 8.5
2018-Feb-15 11:30N 48°28' W 122°45'610.8
2018-Feb-15 11:00N 48°23' W 122°48'5 9.8
2018-Feb-15 10:30N 48°21' W 122°55'612.4
2018-Feb-15 09:59N 48°18' W 123°03'2 3.4
2018-Feb-15 09:30N 48°19' W 123°02'611.9
2018-Feb-15 09:01N 48°22' W 122°54'611.9
2018-Feb-15 08:30N 48°26' W 122°47'510.1
2018-Feb-15 08:01N 48°30' W 122°45'611.2
2018-Feb-15 07:31N 48°36' W 122°45'611.2
2018-Feb-15 07:00N 48°42' W 122°44'612.4
2018-Feb-15 06:30N 48°48' W 122°46'2 0.3
2018-Feb-15 00:55N 48°49' W 122°44'1 1.4
2018-Feb-15 00:29N 48°48' W 122°43'0 0.0
2018-Feb-14 23:58N 48°48' W 122°43'0 0.0
2018-Feb-14 23:28N 48°48' W 122°43'0 0.0
2018-Feb-14 23:00N 48°48' W 122°43'0 0.0
2018-Feb-14 22:30N 48°48' W 122°43'0 0.0
2018-Feb-14 21:58N 48°48' W 122°43'0 0.1
2018-Feb-14 21:28N 48°48' W 122°43'0 0.0
2018-Feb-14 20:59N 48°48' W 122°43'0 0.0
2018-Feb-14 20:23N 48°48' W 122°43'0 0.0
2018-Feb-14 20:00N 48°48' W 122°43'0 0.0
2018-Feb-14 19:30N 48°48' W 122°43'0 0.0
2018-Feb-14 18:40N 48°48' W 122°43'0 0.0
2018-Feb-14 18:30N 48°48' W 122°43'0 0.0
2018-Feb-14 17:41N 48°48' W 122°43'0 0.0
2018-Feb-14 17:29N 48°48' W 122°43'0 0.0
2018-Feb-14 17:00N 48°48' W 122°43'0 0.0
2018-Feb-14 16:23N 48°48' W 122°43'0 0.1
2018-Feb-14 15:58N 48°48' W 122°43'2 4.7
2018-Feb-14 15:30N 48°50' W 122°45'1 0.6
2018-Feb-14 13:28N 48°51' W 122°47'3 2.3
2018-Feb-14 12:11N 48°49' W 122°43'1 2.1
2018-Feb-14 11:51N 48°48' W 122°43'0 0.0
2018-Feb-14 11:22N 48°48' W 122°43'0 0.0
2018-Feb-14 10:55N 48°48' W 122°43'0 0.0
2018-Feb-14 10:21N 48°48' W 122°43'0 0.0
2018-Feb-14 10:00N 48°48' W 122°43'0 0.0
2018-Feb-14 09:29N 48°48' W 122°43'0 0.0
2018-Feb-14 09:00N 48°48' W 122°43'0 0.0
2018-Feb-14 08:29N 48°48' W 122°43'0 0.0
2018-Feb-14 02:38N 48°48' W 122°43'0 0.0
2018-Feb-14 02:20N 48°48' W 122°43'0 0.0
2018-Feb-14 01:15N 48°48' W 122°43'0 0.0
2018-Feb-13 21:51N 48°48' W 122°43'3 2.5
2018-Feb-13 20:30N 48°51' W 122°46'5 7.9
2018-Feb-13 19:56N 48°47' W 122°45'512.5
2018-Feb-13 19:30N 48°42' W 122°44'510.4
2018-Feb-13 19:01N 48°37' W 122°45'510.4
2018-Feb-13 18:30N 48°31' W 122°45'5 9.9
2018-Feb-13 18:00N 48°26' W 122°46'510.6
2018-Feb-13 17:29N 48°23' W 122°52'9 5.2
2018-Feb-13 15:48N 48°18' W 123°03'2 5.2
2018-Feb-13 15:25N 48°19' W 123°01'4 8.9
2018-Feb-13 15:01N 48°21' W 122°56'4 8.3
2018-Feb-13 14:30N 48°24' W 122°51'4 8.7
2018-Feb-13 14:00N 48°27' W 122°46'4 8.6
2018-Feb-13 13:30N 48°30' W 122°43'4 8.1
2018-Feb-13 13:00N 48°31' W 122°37'0 0.0
2018-Feb-13 12:30N 48°31' W 122°37'0 0.0
2018-Feb-13 12:00N 48°31' W 122°37'0 0.0
2018-Feb-13 11:30N 48°31' W 122°37'0 0.0
2018-Feb-13 11:00N 48°31' W 122°37'0 0.0
2018-Feb-13 10:30N 48°31' W 122°37'0 0.0
2018-Feb-13 10:00N 48°31' W 122°37'0 0.0
2018-Feb-13 09:30N 48°31' W 122°37'0 0.0
2018-Feb-13 09:00N 48°31' W 122°37'1 2.6
2018-Feb-13 08:30N 48°31' W 122°35'0 0.6
2018-Feb-13 08:00N 48°31' W 122°35'0 0.7
2018-Feb-13 07:30N 48°31' W 122°34'0 0.1
2018-Feb-13 07:00N 48°31' W 122°34'0 0.9
2018-Feb-13 06:30N 48°31' W 122°35'1 2.6
2018-Feb-13 06:00N 48°31' W 122°37'0 0.0
2018-Feb-13 05:30N 48°31' W 122°37'0 0.0
2018-Feb-13 05:00N 48°31' W 122°37'0 0.0
2018-Feb-13 04:30N 48°31' W 122°37'0 0.0
2018-Feb-13 04:01N 48°31' W 122°37'0 0.0
2018-Feb-13 03:31N 48°31' W 122°37'0 0.0
2018-Feb-13 03:01N 48°31' W 122°37'0 0.0
2018-Feb-13 02:31N 48°31' W 122°37'0 0.0
2018-Feb-13 02:01N 48°31' W 122°37'0 0.0
2018-Feb-13 01:29N 48°31' W 122°37'0 0.0
2018-Feb-13 01:00N 48°31' W 122°37'0 0.0
2018-Feb-13 00:30N 48°31' W 122°37'3 5.8
2018-Feb-13 00:00N 48°33' W 122°40'5 9.2
2018-Feb-12 23:30N 48°38' W 122°43'5 9.6
2018-Feb-12 23:00N 48°42' W 122°44'5 9.1
2018-Feb-12 22:30N 48°47' W 122°45'3 2.4
2018-Feb-12 21:04N 48°50' W 122°45'0 7.3
2018-Feb-12 21:00N 48°50' W 122°45'4 7.7
2018-Feb-12 20:30N 48°46' W 122°45'5 9.3
2018-Feb-12 20:00N 48°42' W 122°42'4 8.3
2018-Feb-12 19:31N 48°38' W 122°39'4 8.2
2018-Feb-12 19:00N 48°35' W 122°35'3 6.4
2018-Feb-12 18:30N 48°32' W 122°35'1 1.9
2018-Feb-12 18:00N 48°31' W 122°35'0 0.2
2018-Feb-12 17:31N 48°31' W 122°35'0 0.0
2018-Feb-12 16:59N 48°31' W 122°35'0 0.6
2018-Feb-12 16:30N 48°31' W 122°35'0 0.4
2018-Feb-12 16:00N 48°31' W 122°35'1 2.3
2018-Feb-12 15:31N 48°31' W 122°36'1 2.6
2018-Feb-12 15:01N 48°31' W 122°35'0 0.3
2018-Feb-12 14:31N 48°31' W 122°35'1 2.9
2018-Feb-12 14:01N 48°32' W 122°34'5 9.1
2018-Feb-12 13:31N 48°36' W 122°37'5 8.8
2018-Feb-12 12:59N 48°40' W 122°41'4 8.1
2018-Feb-12 12:31N 48°43' W 122°44'5 8.7
2018-Feb-12 11:53N 48°48' W 122°45'3 8.3
2018-Feb-12 11:30N 48°52' W 122°46'0 0.0
2018-Feb-11 23:18N 48°52' W 122°46'0 0.1
2018-Feb-11 22:34N 48°52' W 122°46'0 0.2
2018-Feb-11 22:30N 48°52' W 122°46'0 0.1
2018-Feb-11 16:41N 48°52' W 122°46'2 1.4
2018-Feb-11 15:25N 48°51' W 122°45'2 0.9
2018-Feb-11 12:32N 48°48' W 122°43'0 0.0
2018-Feb-11 12:21N 48°48' W 122°43'0 0.0
2018-Feb-11 11:41N 48°48' W 122°43'0 0.0
2018-Feb-11 11:31N 48°48' W 122°43'0 0.0
2018-Feb-11 09:56N 48°48' W 122°43'0 0.0
2018-Feb-11 09:30N 48°48' W 122°43'0 0.0
2018-Feb-11 06:53N 48°48' W 122°43'0 0.0
2018-Feb-11 03:15N 48°48' W 122°43'0 0.0
2018-Feb-11 01:49N 48°48' W 122°43'0 0.0
2018-Feb-11 01:30N 48°48' W 122°43'0 0.0
2018-Feb-11 00:20N 48°48' W 122°43'0 0.0
2018-Feb-10 23:59N 48°48' W 122°43'0 0.0
2018-Feb-10 23:29N 48°48' W 122°43'0 0.0
2018-Feb-10 22:06N 48°48' W 122°43'0 0.4
2018-Feb-10 22:00N 48°48' W 122°43'3 1.7
2018-Feb-10 20:23N 48°51' W 122°45'1 3.3
2018-Feb-10 19:59N 48°49' W 122°45'2 0.7
2018-Feb-10 17:44N 48°48' W 122°43'0 0.0
2018-Feb-10 17:25N 48°48' W 122°43'0 0.0
2018-Feb-10 16:55N 48°48' W 122°43'0 0.0
2018-Feb-10 16:29N 48°48' W 122°43'0 0.0
2018-Feb-10 15:48N 48°48' W 122°43'0 0.0
2018-Feb-10 15:19N 48°48' W 122°43'0 0.0
2018-Feb-10 14:03N 48°48' W 122°43'0 0.0
2018-Feb-10 12:28N 48°48' W 122°43'0 0.0
2018-Feb-10 11:40N 48°48' W 122°43'0 0.0
2018-Feb-10 11:30N 48°48' W 122°43'0 0.0
2018-Feb-10 09:30N 48°48' W 122°43'0 0.0
2018-Feb-10 08:34N 48°48' W 122°43'0 0.0
2018-Feb-10 05:42N 48°48' W 122°43'1 4.4
2018-Feb-10 05:25N 48°49' W 122°44'2 1.0
2018-Feb-10 03:51N 48°51' W 122°45'1 2.2
2018-Feb-10 03:24N 48°50' W 122°45'3 5.9
2018-Feb-10 02:50N 48°47' W 122°46'3 8.2
2018-Feb-10 02:28N 48°44' W 122°45'4 7.8
2018-Feb-10 02:00N 48°40' W 122°43'3 6.8
2018-Feb-10 01:30N 48°37' W 122°45'3 6.5
2018-Feb-10 01:00N 48°34' W 122°45'4 7.4
2018-Feb-10 00:30N 48°30' W 122°44'5 9.0
2018-Feb-10 00:00N 48°26' W 122°47'510.4
2018-Feb-09 23:30N 48°22' W 122°53'2 0.6
2018-Feb-09 20:00N 48°24' W 122°50'5 9.3
2018-Feb-09 19:30N 48°27' W 122°46'4 8.9
2018-Feb-09 19:01N 48°31' W 122°42'3 7.0
2018-Feb-09 18:30N 48°31' W 122°37'0 0.0
2018-Feb-09 18:00N 48°31' W 122°37'  
Track history (hours):
 
Tides and Currents Weather Stations Pressure Air Temp Water Temp Dewpoint Dewpoint Depression Visibility Wind Speed Wind Dir Waves Ship Positions

Response

Owner: VESSEL MANAGEMENT SERVICES INC, SEATTLE, WA. More information available from US FCC via Universal Licensing System and Coast Guard Vessel Documentation Center.

Last reported at 2018-Feb-19 17:23 UTC. Time now 2018-Feb-19 17:32 UTC.
Position N 48°47' W 122°45'.

Length 40 m; draft 6.1 m.

Type: Tug. MMSI: 366866930.

Date/timePositionNaut miles runAvg speedWind from/ knotsBaromVisibWave heightAir tempDewpointWater temp
2018-Feb-19 17:23N 48°47' W 122°45'611.8
2018-Feb-19 16:54N 48°41' W 122°43'411.6
2018-Feb-19 16:31N 48°38' W 122°39'3 6.2
2018-Feb-19 16:00N 48°37' W 122°34'0 0.3
2018-Feb-19 15:30N 48°37' W 122°34'0 0.4
2018-Feb-19 15:01N 48°37' W 122°34'0 0.9
2018-Feb-19 14:30N 48°36' W 122°35'1 2.9
2018-Feb-19 14:00N 48°35' W 122°35'3 6.9
2018-Feb-19 13:31N 48°32' W 122°34'2 3.2
2018-Feb-19 13:00N 48°31' W 122°37'0 0.0
2018-Feb-19 12:30N 48°31' W 122°37'0 0.0
2018-Feb-19 12:00N 48°31' W 122°37'0 0.0
2018-Feb-19 11:29N 48°31' W 122°37'0 0.0
2018-Feb-19 11:00N 48°31' W 122°37'0 0.0
2018-Feb-19 10:30N 48°31' W 122°37'0 0.0
2018-Feb-19 10:01N 48°31' W 122°37'0 0.0
2018-Feb-19 09:30N 48°31' W 122°37'0 0.0
2018-Feb-19 09:01N 48°31' W 122°37'0 0.0
2018-Feb-19 08:25N 48°31' W 122°37'0 0.0
2018-Feb-19 08:00N 48°31' W 122°37'0 0.0
2018-Feb-19 07:30N 48°31' W 122°37'0 0.0
2018-Feb-19 07:00N 48°31' W 122°37'0 0.0
2018-Feb-19 06:29N 48°31' W 122°37'0 0.0
2018-Feb-19 05:59N 48°31' W 122°37'0 0.0
2018-Feb-19 05:31N 48°31' W 122°37'0 0.0
2018-Feb-19 04:59N 48°31' W 122°37'0 0.0
2018-Feb-19 04:30N 48°31' W 122°37'0 0.0
2018-Feb-19 04:00N 48°31' W 122°37'0 0.0
2018-Feb-19 03:30N 48°31' W 122°37'0 0.0
2018-Feb-19 03:00N 48°31' W 122°37'0 0.0
2018-Feb-19 02:30N 48°31' W 122°37'0 0.0
2018-Feb-19 02:00N 48°31' W 122°37'0 0.0
2018-Feb-19 01:28N 48°31' W 122°37'0 0.0
2018-Feb-19 01:00N 48°31' W 122°37'0 0.0
2018-Feb-19 00:31N 48°31' W 122°37'0 0.0
2018-Feb-19 00:00N 48°31' W 122°37'0 0.0
2018-Feb-18 23:30N 48°31' W 122°37'0 0.0
2018-Feb-18 22:59N 48°31' W 122°37'0 0.0
2018-Feb-18 22:30N 48°31' W 122°37'0 0.0
2018-Feb-18 22:00N 48°31' W 122°37'0 0.0
2018-Feb-18 21:30N 48°31' W 122°37'0 0.0
2018-Feb-18 21:00N 48°31' W 122°37'0 0.0
2018-Feb-18 20:31N 48°31' W 122°37'0 0.0
2018-Feb-18 20:00N 48°31' W 122°37'0 0.0
2018-Feb-18 19:31N 48°31' W 122°37'0 0.0
2018-Feb-18 19:00N 48°31' W 122°37'0 0.0
2018-Feb-18 18:30N 48°31' W 122°37'0 0.0
2018-Feb-18 18:00N 48°31' W 122°37'0 0.0
2018-Feb-18 17:30N 48°31' W 122°37'0 0.0
2018-Feb-18 17:00N 48°31' W 122°37'0 0.0
2018-Feb-18 16:30N 48°31' W 122°37'0 0.0
2018-Feb-18 15:57N 48°31' W 122°37'0 0.0
2018-Feb-18 15:29N 48°31' W 122°37'0 0.0
2018-Feb-18 15:00N 48°31' W 122°37'0 0.0
2018-Feb-18 14:30N 48°31' W 122°37'0 0.0
2018-Feb-18 14:00N 48°31' W 122°37'0 0.0
2018-Feb-18 13:29N 48°31' W 122°37'0 0.0
2018-Feb-18 13:00N 48°31' W 122°37'0 0.0
2018-Feb-18 12:30N 48°31' W 122°37'0 0.0
2018-Feb-18 12:00N 48°31' W 122°37'0 0.0
2018-Feb-18 11:30N 48°31' W 122°37'0 0.0
2018-Feb-18 10:59N 48°31' W 122°37'0 0.0
2018-Feb-18 10:30N 48°31' W 122°37'0 0.0
2018-Feb-18 10:00N 48°31' W 122°37'0 0.0
2018-Feb-18 09:31N 48°31' W 122°37'2 4.3
2018-Feb-18 09:00N 48°32' W 122°34'4 9.0
2018-Feb-18 08:31N 48°37' W 122°34'0 0.8
2018-Feb-18 08:00N 48°37' W 122°34'1 2.1
2018-Feb-18 07:30N 48°37' W 122°36'4 7.1
2018-Feb-18 07:00N 48°39' W 122°40'510.7
2018-Feb-18 06:30N 48°43' W 122°45'510.8
2018-Feb-18 06:01N 48°49' W 122°46'1 0.7
2018-Feb-18 04:14N 48°48' W 122°44'3 7.0
2018-Feb-18 03:45N 48°45' W 122°43'0 0.0
2018-Feb-18 01:16N 48°45' W 122°43'0 0.0
2018-Feb-17 19:51N 48°45' W 122°43'0 0.0
2018-Feb-17 19:29N 48°45' W 122°43'0 0.1
2018-Feb-17 18:50N 48°45' W 122°43'0 0.0
2018-Feb-17 14:58N 48°45' W 122°43'4 7.6
2018-Feb-17 14:30N 48°49' W 122°44'1 0.4
2018-Feb-17 13:11N 48°49' W 122°43'1 0.7
2018-Feb-17 12:15N 48°48' W 122°43'0 0.0
2018-Feb-17 12:00N 48°48' W 122°43'0 0.0
2018-Feb-17 08:12N 48°48' W 122°43'0 0.1
2018-Feb-17 07:45N 48°48' W 122°43'0 0.0
2018-Feb-17 07:30N 48°48' W 122°43'0 0.0
2018-Feb-17 06:58N 48°48' W 122°43'0 0.0
2018-Feb-17 06:28N 48°48' W 122°43'0 0.0
2018-Feb-17 05:59N 48°48' W 122°43'0 0.0
2018-Feb-17 05:30N 48°48' W 122°43'0 0.0
2018-Feb-17 05:00N 48°48' W 122°43'0 0.0
2018-Feb-17 04:29N 48°48' W 122°43'0 0.0
2018-Feb-17 04:00N 48°48' W 122°43'0 0.0
2018-Feb-17 03:30N 48°48' W 122°43'0 0.1
2018-Feb-17 03:00N 48°48' W 122°43'0 0.2
2018-Feb-17 01:09N 48°49' W 122°44'0 0.1
2018-Feb-16 19:35N 48°48' W 122°43'0 0.1
2018-Feb-16 18:53N 48°48' W 122°43'0 0.0
2018-Feb-16 17:14N 48°48' W 122°43'0 1.5
2018-Feb-16 17:00N 48°48' W 122°44'3 2.5
2018-Feb-16 15:39N 48°51' W 122°45'1 4.0
2018-Feb-16 15:30N 48°51' W 122°45'5 8.4
2018-Feb-16 14:58N 48°46' W 122°46'511.5
2018-Feb-16 14:30N 48°41' W 122°43'5 9.5
2018-Feb-16 14:00N 48°37' W 122°45'510.7
2018-Feb-16 13:30N 48°32' W 122°44'510.1
2018-Feb-16 13:00N 48°27' W 122°46'713.5
2018-Feb-16 12:30N 48°22' W 122°52'6 1.1
2018-Feb-16 07:04N 48°19' W 123°01'1 7.8
2018-Feb-16 07:00N 48°20' W 123°00'4 8.6
2018-Feb-16 06:30N 48°22' W 122°55'4 8.5
2018-Feb-16 06:00N 48°24' W 122°49'5 9.0
2018-Feb-16 05:30N 48°28' W 122°45'510.1
2018-Feb-16 05:00N 48°33' W 122°45'510.2
2018-Feb-16 04:30N 48°38' W 122°44'5 9.4
2018-Feb-16 04:00N 48°43' W 122°45'5 8.9
2018-Feb-16 03:30N 48°47' W 122°44'1 2.2
2018-Feb-16 02:59N 48°48' W 122°43'0 0.0
2018-Feb-16 00:13N 48°48' W 122°43'0 0.0
2018-Feb-15 22:54N 48°48' W 122°43'0 0.0
2018-Feb-15 21:10N 48°48' W 122°43'0 0.0
2018-Feb-15 20:53N 48°48' W 122°43'0 0.0
2018-Feb-15 20:25N 48°48' W 122°43'0 0.0
2018-Feb-15 20:00N 48°48' W 122°43'0 0.0
2018-Feb-15 19:29N 48°48' W 122°43'0 0.0
2018-Feb-15 18:54N 48°48' W 122°43'1 2.1
2018-Feb-15 18:30N 48°49' W 122°44'2 1.1
2018-Feb-15 16:43N 48°51' W 122°45'1 5.0
2018-Feb-15 16:29N 48°50' W 122°45'6 9.6
2018-Feb-15 15:54N 48°44' W 122°45'4 9.7
2018-Feb-15 15:30N 48°41' W 122°42'5 9.1
2018-Feb-15 15:01N 48°37' W 122°37'4 8.0
2018-Feb-15 14:30N 48°34' W 122°35'3 6.0
2018-Feb-15 14:00N 48°31' W 122°35'0 0.6
2018-Feb-15 13:30N 48°31' W 122°35'0 0.4
2018-Feb-15 13:00N 48°31' W 122°35'0 0.6
2018-Feb-15 12:30N 48°31' W 122°35'3 6.2
2018-Feb-15 12:01N 48°31' W 122°40'4 8.5
2018-Feb-15 11:30N 48°28' W 122°45'610.8
2018-Feb-15 11:00N 48°23' W 122°48'5 9.8
2018-Feb-15 10:30N 48°21' W 122°55'612.4
2018-Feb-15 09:59N 48°18' W 123°03'2 3.4
2018-Feb-15 09:30N 48°19' W 123°02'611.9
2018-Feb-15 09:01N 48°22' W 122°54'611.9
2018-Feb-15 08:30N 48°26' W 122°47'510.1
2018-Feb-15 08:01N 48°30' W 122°45'611.2
2018-Feb-15 07:31N 48°36' W 122°45'611.2
2018-Feb-15 07:00N 48°42' W 122°44'612.4
2018-Feb-15 06:30N 48°48' W 122°46'2 0.3
2018-Feb-15 00:55N 48°49' W 122°44'1 1.4
2018-Feb-15 00:29N 48°48' W 122°43'0 0.0
2018-Feb-14 23:58N 48°48' W 122°43'0 0.0
2018-Feb-14 23:28N 48°48' W 122°43'0 0.0
2018-Feb-14 23:00N 48°48' W 122°43'0 0.0
2018-Feb-14 22:30N 48°48' W 122°43'0 0.0
2018-Feb-14 21:58N 48°48' W 122°43'0 0.1
2018-Feb-14 21:28N 48°48' W 122°43'0 0.0
2018-Feb-14 20:59N 48°48' W 122°43'0 0.0
2018-Feb-14 20:23N 48°48' W 122°43'0 0.0
2018-Feb-14 20:00N 48°48' W 122°43'0 0.0
2018-Feb-14 19:30N 48°48' W 122°43'0 0.0
2018-Feb-14 18:40N 48°48' W 122°43'0 0.0
2018-Feb-14 18:30N 48°48' W 122°43'0 0.0
2018-Feb-14 17:41N 48°48' W 122°43'0 0.0
2018-Feb-14 17:29N 48°48' W 122°43'0 0.0
2018-Feb-14 17:00N 48°48' W 122°43'0 0.0
2018-Feb-14 16:23N 48°48' W 122°43'0 0.1
2018-Feb-14 15:58N 48°48' W 122°43'2 4.7
2018-Feb-14 15:30N 48°50' W 122°45'1 0.6
2018-Feb-14 13:28N 48°51' W 122°47'3 2.3
2018-Feb-14 12:11N 48°49' W 122°43'1 2.1
2018-Feb-14 11:51N 48°48' W 122°43'0 0.0
2018-Feb-14 11:22N 48°48' W 122°43'0 0.0
2018-Feb-14 10:55N 48°48' W 122°43'0 0.0
2018-Feb-14 10:21N 48°48' W 122°43'0 0.0
2018-Feb-14 10:00N 48°48' W 122°43'0 0.0
2018-Feb-14 09:29N 48°48' W 122°43'0 0.0
2018-Feb-14 09:00N 48°48' W 122°43'0 0.0
2018-Feb-14 08:29N 48°48' W 122°43'0 0.0
2018-Feb-14 02:38N 48°48' W 122°43'0 0.0
2018-Feb-14 02:20N 48°48' W 122°43'0 0.0
2018-Feb-14 01:15N 48°48' W 122°43'0 0.0
2018-Feb-13 21:51N 48°48' W 122°43'3 2.5
2018-Feb-13 20:30N 48°51' W 122°46'5 7.9
2018-Feb-13 19:56N 48°47' W 122°45'512.5
2018-Feb-13 19:30N 48°42' W 122°44'510.4
2018-Feb-13 19:01N 48°37' W 122°45'510.4
2018-Feb-13 18:30N 48°31' W 122°45'5 9.9
2018-Feb-13 18:00N 48°26' W 122°46'510.6
2018-Feb-13 17:29N 48°23' W 122°52'9 5.2
2018-Feb-13 15:48N 48°18' W 123°03'2 5.2
2018-Feb-13 15:25N 48°19' W 123°01'4 8.9
2018-Feb-13 15:01N 48°21' W 122°56'4 8.3
2018-Feb-13 14:30N 48°24' W 122°51'4 8.7
2018-Feb-13 14:00N 48°27' W 122°46'4 8.6
2018-Feb-13 13:30N 48°30' W 122°43'4 8.1
2018-Feb-13 13:00N 48°31' W 122°37'0 0.0
2018-Feb-13 12:30N 48°31' W 122°37'0 0.0
2018-Feb-13 12:00N 48°31' W 122°37'0 0.0
2018-Feb-13 11:30N 48°31' W 122°37'0 0.0
2018-Feb-13 11:00N 48°31' W 122°37'0 0.0
2018-Feb-13 10:30N 48°31' W 122°37'0 0.0
2018-Feb-13 10:00N 48°31' W 122°37'0 0.0
2018-Feb-13 09:30N 48°31' W 122°37'0 0.0
2018-Feb-13 09:00N 48°31' W 122°37'1 2.6
2018-Feb-13 08:30N 48°31' W 122°35'0 0.6
2018-Feb-13 08:00N 48°31' W 122°35'0 0.7
2018-Feb-13 07:30N 48°31' W 122°34'0 0.1
2018-Feb-13 07:00N 48°31' W 122°34'0 0.9
2018-Feb-13 06:30N 48°31' W 122°35'1 2.6
2018-Feb-13 06:00N 48°31' W 122°37'0 0.0
2018-Feb-13 05:30N 48°31' W 122°37'0 0.0
2018-Feb-13 05:00N 48°31' W 122°37'0 0.0
2018-Feb-13 04:30N 48°31' W 122°37'0 0.0
2018-Feb-13 04:01N 48°31' W 122°37'0 0.0
2018-Feb-13 03:31N 48°31' W 122°37'0 0.0
2018-Feb-13 03:01N 48°31' W 122°37'0 0.0
2018-Feb-13 02:31N 48°31' W 122°37'0 0.0
2018-Feb-13 02:01N 48°31' W 122°37'0 0.0
2018-Feb-13 01:29N 48°31' W 122°37'0 0.0
2018-Feb-13 01:00N 48°31' W 122°37'0 0.0
2018-Feb-13 00:30N 48°31' W 122°37'3 5.8
2018-Feb-13 00:00N 48°33' W 122°40'5 9.2
2018-Feb-12 23:30N 48°38' W 122°43'5 9.6
2018-Feb-12 23:00N 48°42' W 122°44'5 9.1
2018-Feb-12 22:30N 48°47' W 122°45'3 2.4
2018-Feb-12 21:04N 48°50' W 122°45'0 7.3
2018-Feb-12 21:00N 48°50' W 122°45'4 7.7
2018-Feb-12 20:30N 48°46' W 122°45'5 9.3
2018-Feb-12 20:00N 48°42' W 122°42'4 8.3
2018-Feb-12 19:31N 48°38' W 122°39'4 8.2
2018-Feb-12 19:00N 48°35' W 122°35'3 6.4
2018-Feb-12 18:30N 48°32' W 122°35'1 1.9
2018-Feb-12 18:00N 48°31' W 122°35'0 0.2
2018-Feb-12 17:31N 48°31' W 122°35'0 0.0
2018-Feb-12 16:59N 48°31' W 122°35'0 0.6
2018-Feb-12 16:30N 48°31' W 122°35'0 0.4
2018-Feb-12 16:00N 48°31' W 122°35'1 2.3
2018-Feb-12 15:31N 48°31' W 122°36'1 2.6
2018-Feb-12 15:01N 48°31' W 122°35'0 0.3
2018-Feb-12 14:31N 48°31' W 122°35'1 2.9
2018-Feb-12 14:01N 48°32' W 122°34'5 9.1
2018-Feb-12 13:31N 48°36' W 122°37'5 8.8
2018-Feb-12 12:59N 48°40' W 122°41'4 8.1
2018-Feb-12 12:31N 48°43' W 122°44'5 8.7
2018-Feb-12 11:53N 48°48' W 122°45'3 8.3
2018-Feb-12 11:30N 48°52' W 122°46'0 0.0
2018-Feb-11 23:18N 48°52' W 122°46'0 0.1
2018-Feb-11 22:34N 48°52' W 122°46'0 0.2
2018-Feb-11 22:30N 48°52' W 122°46'0 0.1
2018-Feb-11 16:41N 48°52' W 122°46'2 1.4
2018-Feb-11 15:25N 48°51' W 122°45'2 0.9
2018-Feb-11 12:32N 48°48' W 122°43'0 0.0
2018-Feb-11 12:21N 48°48' W 122°43'0 0.0
2018-Feb-11 11:41N 48°48' W 122°43'0 0.0
2018-Feb-11 11:31N 48°48' W 122°43'0 0.0
2018-Feb-11 09:56N 48°48' W 122°43'0 0.0
2018-Feb-11 09:30N 48°48' W 122°43'0 0.0
2018-Feb-11 06:53N 48°48' W 122°43'0 0.0
2018-Feb-11 03:15N 48°48' W 122°43'0 0.0
2018-Feb-11 01:49N 48°48' W 122°43'0 0.0
2018-Feb-11 01:30N 48°48' W 122°43'0 0.0
2018-Feb-11 00:20N 48°48' W 122°43'0 0.0
2018-Feb-10 23:59N 48°48' W 122°43'0 0.0
2018-Feb-10 23:29N 48°48' W 122°43'0 0.0
2018-Feb-10 22:06N 48°48' W 122°43'0 0.4
2018-Feb-10 22:00N 48°48' W 122°43'3 1.7
2018-Feb-10 20:23N 48°51' W 122°45'1 3.3
2018-Feb-10 19:59N 48°49' W 122°45'2 0.7
2018-Feb-10 17:44N 48°48' W 122°43'0 0.0
2018-Feb-10 17:25N 48°48' W 122°43'0 0.0
2018-Feb-10 16:55N 48°48' W 122°43'0 0.0
2018-Feb-10 16:29N 48°48' W 122°43'0 0.0
2018-Feb-10 15:48N 48°48' W 122°43'0 0.0
2018-Feb-10 15:19N 48°48' W 122°43'0 0.0
2018-Feb-10 14:03N 48°48' W 122°43'0 0.0
2018-Feb-10 12:28N 48°48' W 122°43'0 0.0
2018-Feb-10 11:40N 48°48' W 122°43'0 0.0
2018-Feb-10 11:30N 48°48' W 122°43'0 0.0
2018-Feb-10 09:30N 48°48' W 122°43'0 0.0
2018-Feb-10 08:34N 48°48' W 122°43'0 0.0
2018-Feb-10 05:42N 48°48' W 122°43'1 4.4
2018-Feb-10 05:25N 48°49' W 122°44'2 1.0
2018-Feb-10 03:51N 48°51' W 122°45'1 2.2
2018-Feb-10 03:24N 48°50' W 122°45'3 5.9
2018-Feb-10 02:50N 48°47' W 122°46'3 8.2
2018-Feb-10 02:28N 48°44' W 122°45'4 7.8
2018-Feb-10 02:00N 48°40' W 122°43'3 6.8
2018-Feb-10 01:30N 48°37' W 122°45'3 6.5
2018-Feb-10 01:00N 48°34' W 122°45'4 7.4
2018-Feb-10 00:30N 48°30' W 122°44'5 9.0
2018-Feb-10 00:00N 48°26' W 122°47'510.4
2018-Feb-09 23:30N 48°22' W 122°53'2 0.6
2018-Feb-09 20:00N 48°24' W 122°50'5 9.3
2018-Feb-09 19:30N 48°27' W 122°46'4 8.9
2018-Feb-09 19:01N 48°31' W 122°42'3 7.0
2018-Feb-09 18:30N 48°31' W 122°37'0 0.0
2018-Feb-09 18:00N 48°31' W 122°37'  

Dump ship's entire track history